sensor_id;sensor_type;location;lat;lon;timestamp;temperature;humidity
71837;DHT22;59686;51.716;7.016;2023-11-19T00:00:36;9.70;99.30
71837;DHT22;59686;51.716;7.016;2023-11-19T00:03:01;9.80;98.80
71837;DHT22;59686;51.716;7.016;2023-11-19T00:05:27;9.90;99.00
71837;DHT22;59686;51.716;7.016;2023-11-19T00:07:53;9.90;99.00
71837;DHT22;59686;51.716;7.016;2023-11-19T00:10:19;9.90;99.00
71837;DHT22;59686;51.716;7.016;2023-11-19T00:12:46;9.90;99.10
71837;DHT22;59686;51.716;7.016;2023-11-19T00:15:13;9.90;98.90
71837;DHT22;59686;51.716;7.016;2023-11-19T00:17:40;10.00;99.00
71837;DHT22;59686;51.716;7.016;2023-11-19T00:20:06;9.90;98.90
71837;DHT22;59686;51.716;7.016;2023-11-19T00:22:32;9.90;98.90
71837;DHT22;59686;51.716;7.016;2023-11-19T00:24:58;9.90;98.90
71837;DHT22;59686;51.716;7.016;2023-11-19T00:27:25;9.90;98.80
71837;DHT22;59686;51.716;7.016;2023-11-19T00:29:51;9.90;98.80
71837;DHT22;59686;51.716;7.016;2023-11-19T00:32:17;9.90;98.80
71837;DHT22;59686;51.716;7.016;2023-11-19T00:34:45;9.90;98.70
71837;DHT22;59686;51.716;7.016;2023-11-19T00:37:13;9.90;98.90
71837;DHT22;59686;51.716;7.016;2023-11-19T00:39:39;9.90;98.80
71837;DHT22;59686;51.716;7.016;2023-11-19T00:42:05;10.00;98.80
71837;DHT22;59686;51.716;7.016;2023-11-19T00:44:31;10.00;98.80
71837;DHT22;59686;51.716;7.016;2023-11-19T00:46:56;10.00;98.90
71837;DHT22;59686;51.716;7.016;2023-11-19T00:49:22;9.90;98.90
71837;DHT22;59686;51.716;7.016;2023-11-19T00:51:48;10.10;99.00
71837;DHT22;59686;51.716;7.016;2023-11-19T00:54:17;10.00;98.90
71837;DHT22;59686;51.716;7.016;2023-11-19T00:56:43;10.00;98.90
71837;DHT22;59686;51.716;7.016;2023-11-19T00:59:08;10.00;99.00
71837;DHT22;59686;51.716;7.016;2023-11-19T01:01:34;10.00;98.90
71837;DHT22;59686;51.716;7.016;2023-11-19T01:03:59;10.00;99.20
71837;DHT22;59686;51.716;7.016;2023-11-19T01:06:29;10.10;98.90
71837;DHT22;59686;51.716;7.016;2023-11-19T01:08:55;10.00;98.80
71837;DHT22;59686;51.716;7.016;2023-11-19T01:11:23;10.10;99.00
71837;DHT22;59686;51.716;7.016;2023-11-19T01:13:49;10.00;98.90
71837;DHT22;59686;51.716;7.016;2023-11-19T01:16:15;10.10;99.00
71837;DHT22;59686;51.716;7.016;2023-11-19T01:18:41;10.10;98.90
71837;DHT22;59686;51.716;7.016;2023-11-19T01:21:07;10.10;98.90
71837;DHT22;59686;51.716;7.016;2023-11-19T01:23:34;10.10;98.80
71837;DHT22;59686;51.716;7.016;2023-11-19T01:26:00;10.10;98.80
71837;DHT22;59686;51.716;7.016;2023-11-19T01:28:26;10.10;98.90
71837;DHT22;59686;51.716;7.016;2023-11-19T01:30:51;10.10;98.70
71837;DHT22;59686;51.716;7.016;2023-11-19T01:33:17;10.20;98.80
71837;DHT22;59686;51.716;7.016;2023-11-19T01:35:43;10.20;98.80
71837;DHT22;59686;51.716;7.016;2023-11-19T01:38:08;10.20;98.80
71837;DHT22;59686;51.716;7.016;2023-11-19T01:40:34;10.20;98.90
71837;DHT22;59686;51.716;7.016;2023-11-19T01:43:02;10.10;98.80
71837;DHT22;59686;51.716;7.016;2023-11-19T01:45:29;10.10;98.80
71837;DHT22;59686;51.716;7.016;2023-11-19T01:47:57;10.30;98.90
71837;DHT22;59686;51.716;7.016;2023-11-19T01:50:23;10.20;98.80
71837;DHT22;59686;51.716;7.016;2023-11-19T01:52:54;10.20;98.90
71837;DHT22;59686;51.716;7.016;2023-11-19T01:55:20;10.30;98.80
71837;DHT22;59686;51.716;7.016;2023-11-19T01:57:48;10.30;98.80
71837;DHT22;59686;51.716;7.016;2023-11-19T02:00:15;10.30;99.00
71837;DHT22;59686;51.716;7.016;2023-11-19T02:02:43;10.30;99.10
71837;DHT22;59686;51.716;7.016;2023-11-19T02:05:11;10.30;99.10
71837;DHT22;59686;51.716;7.016;2023-11-19T02:07:37;10.40;99.00
71837;DHT22;59686;51.716;7.016;2023-11-19T02:10:03;10.40;99.10
71837;DHT22;59686;51.716;7.016;2023-11-19T02:12:31;10.40;99.00
71837;DHT22;59686;51.716;7.016;2023-11-19T02:15:01;10.60;99.10
71837;DHT22;59686;51.716;7.016;2023-11-19T02:17:29;10.50;99.10
71837;DHT22;59686;51.716;7.016;2023-11-19T02:19:57;10.50;99.20
71837;DHT22;59686;51.716;7.016;2023-11-19T02:22:23;10.50;99.20
71837;DHT22;59686;51.716;7.016;2023-11-19T02:24:51;10.50;99.20
71837;DHT22;59686;51.716;7.016;2023-11-19T02:27:31;10.50;99.30
71837;DHT22;59686;51.716;7.016;2023-11-19T02:30:00;10.50;99.20
71837;DHT22;59686;51.716;7.016;2023-11-19T02:32:27;10.50;99.20
71837;DHT22;59686;51.716;7.016;2023-11-19T02:34:53;10.50;99.70
71837;DHT22;59686;51.716;7.016;2023-11-19T02:37:19;10.50;99.30
71837;DHT22;59686;51.716;7.016;2023-11-19T02:39:44;10.50;99.20
71837;DHT22;59686;51.716;7.016;2023-11-19T02:42:10;10.60;99.40
71837;DHT22;59686;51.716;7.016;2023-11-19T02:44:36;10.40;99.40
71837;DHT22;59686;51.716;7.016;2023-11-19T02:47:02;10.60;99.40
71837;DHT22;59686;51.716;7.016;2023-11-19T02:49:30;10.50;99.50
71837;DHT22;59686;51.716;7.016;2023-11-19T02:51:56;10.50;99.40
71837;DHT22;59686;51.716;7.016;2023-11-19T02:54:22;10.50;99.40
71837;DHT22;59686;51.716;7.016;2023-11-19T02:56:52;10.50;99.40
71837;DHT22;59686;51.716;7.016;2023-11-19T02:59:21;10.60;99.50
71837;DHT22;59686;51.716;7.016;2023-11-19T03:01:54;10.60;99.70
71837;DHT22;59686;51.716;7.016;2023-11-19T03:04:20;10.50;99.60
71837;DHT22;59686;51.716;7.016;2023-11-19T03:06:46;10.60;99.80
71837;DHT22;59686;51.716;7.016;2023-11-19T03:09:12;10.60;99.50
71837;DHT22;59686;51.716;7.016;2023-11-19T03:11:38;10.60;99.60
71837;DHT22;59686;51.716;7.016;2023-11-19T03:14:04;10.60;99.50
71837;DHT22;59686;51.716;7.016;2023-11-19T03:16:32;10.60;99.50
71837;DHT22;59686;51.716;7.016;2023-11-19T03:18:57;10.70;99.60
71837;DHT22;59686;51.716;7.016;2023-11-19T03:21:30;10.60;99.60
71837;DHT22;59686;51.716;7.016;2023-11-19T03:23:57;10.60;99.60
71837;DHT22;59686;51.716;7.016;2023-11-19T03:26:23;10.60;99.70
71837;DHT22;59686;51.716;7.016;2023-11-19T03:28:49;10.60;99.60
71837;DHT22;59686;51.716;7.016;2023-11-19T03:31:14;10.60;99.60
71837;DHT22;59686;51.716;7.016;2023-11-19T03:33:40;10.60;99.60
71837;DHT22;59686;51.716;7.016;2023-11-19T03:36:06;10.70;99.60
71837;DHT22;59686;51.716;7.016;2023-11-19T03:38:32;10.70;99.50
71837;DHT22;59686;51.716;7.016;2023-11-19T03:40:58;10.80;99.80
71837;DHT22;59686;51.716;7.016;2023-11-19T03:43:24;10.80;99.90
71837;DHT22;59686;51.716;7.016;2023-11-19T03:45:50;10.80;99.80
71837;DHT22;59686;51.716;7.016;2023-11-19T03:48:16;10.80;99.90
71837;DHT22;59686;51.716;7.016;2023-11-19T03:50:42;10.90;99.90
71837;DHT22;59686;51.716;7.016;2023-11-19T03:53:07;10.90;99.90
71837;DHT22;59686;51.716;7.016;2023-11-19T03:55:33;10.90;99.90
71837;DHT22;59686;51.716;7.016;2023-11-19T03:57:59;11.00;99.80
71837;DHT22;59686;51.716;7.016;2023-11-19T04:00:24;10.80;99.90
71837;DHT22;59686;51.716;7.016;2023-11-19T04:02:50;10.80;99.90
71837;DHT22;59686;51.716;7.016;2023-11-19T04:05:16;10.80;99.90
71837;DHT22;59686;51.716;7.016;2023-11-19T04:07:44;10.90;99.90
71837;DHT22;59686;51.716;7.016;2023-11-19T04:10:09;11.00;99.90
71837;DHT22;59686;51.716;7.016;2023-11-19T04:12:35;10.90;99.90
71837;DHT22;59686;51.716;7.016;2023-11-19T04:15:01;10.90;99.90
71837;DHT22;59686;51.716;7.016;2023-11-19T04:17:26;11.00;99.90
71837;DHT22;59686;51.716;7.016;2023-11-19T04:19:52;10.90;99.90
71837;DHT22;59686;51.716;7.016;2023-11-19T04:22:18;10.80;99.90
71837;DHT22;59686;51.716;7.016;2023-11-19T04:24:43;10.70;99.90
71837;DHT22;59686;51.716;7.016;2023-11-19T04:27:11;10.90;99.90
71837;DHT22;59686;51.716;7.016;2023-11-19T04:29:36;10.90;99.90
71837;DHT22;59686;51.716;7.016;2023-11-19T04:32:02;10.80;99.90
71837;DHT22;59686;51.716;7.016;2023-11-19T04:34:28;10.90;99.90
71837;DHT22;59686;51.716;7.016;2023-11-19T04:36:53;10.90;99.90
71837;DHT22;59686;51.716;7.016;2023-11-19T04:39:19;10.90;99.90
71837;DHT22;59686;51.716;7.016;2023-11-19T04:41:51;10.90;99.90
71837;DHT22;59686;51.716;7.016;2023-11-19T04:44:24;10.90;99.90
71837;DHT22;59686;51.716;7.016;2023-11-19T04:46:50;10.90;99.90
71837;DHT22;59686;51.716;7.016;2023-11-19T04:49:16;10.80;99.90
71837;DHT22;59686;51.716;7.016;2023-11-19T04:51:43;10.90;99.90
71837;DHT22;59686;51.716;7.016;2023-11-19T04:54:09;10.90;99.90
71837;DHT22;59686;51.716;7.016;2023-11-19T04:56:38;10.90;99.90
71837;DHT22;59686;51.716;7.016;2023-11-19T04:59:05;10.90;99.90
71837;DHT22;59686;51.716;7.016;2023-11-19T05:01:34;10.90;99.90
71837;DHT22;59686;51.716;7.016;2023-11-19T05:04:01;10.90;99.90
71837;DHT22;59686;51.716;7.016;2023-11-19T05:06:30;10.90;99.90
71837;DHT22;59686;51.716;7.016;2023-11-19T05:08:58;10.80;99.90
71837;DHT22;59686;51.716;7.016;2023-11-19T05:11:24;10.90;99.90
71837;DHT22;59686;51.716;7.016;2023-11-19T05:13:49;10.90;99.90
71837;DHT22;59686;51.716;7.016;2023-11-19T05:16:16;10.90;99.90
71837;DHT22;59686;51.716;7.016;2023-11-19T05:18:42;11.00;99.90
71837;DHT22;59686;51.716;7.016;2023-11-19T05:21:08;10.80;99.90
71837;DHT22;59686;51.716;7.016;2023-11-19T05:23:34;10.90;99.90
71837;DHT22;59686;51.716;7.016;2023-11-19T05:26:01;10.90;99.90
71837;DHT22;59686;51.716;7.016;2023-11-19T05:28:27;10.80;99.90
71837;DHT22;59686;51.716;7.016;2023-11-19T05:30:52;10.80;99.90
71837;DHT22;59686;51.716;7.016;2023-11-19T05:33:18;10.90;99.90
71837;DHT22;59686;51.716;7.016;2023-11-19T05:35:44;10.90;99.90
71837;DHT22;59686;51.716;7.016;2023-11-19T05:38:12;10.70;99.90
71837;DHT22;59686;51.716;7.016;2023-11-19T05:40:38;10.80;99.90
71837;DHT22;59686;51.716;7.016;2023-11-19T05:43:05;10.90;99.90
71837;DHT22;59686;51.716;7.016;2023-11-19T05:45:32;10.90;99.90
71837;DHT22;59686;51.716;7.016;2023-11-19T05:47:59;10.80;99.90
71837;DHT22;59686;51.716;7.016;2023-11-19T05:50:24;10.80;99.90
71837;DHT22;59686;51.716;7.016;2023-11-19T05:52:52;10.80;99.90
71837;DHT22;59686;51.716;7.016;2023-11-19T05:55:19;10.80;99.90
71837;DHT22;59686;51.716;7.016;2023-11-19T05:57:45;10.90;99.90
71837;DHT22;59686;51.716;7.016;2023-11-19T06:00:11;10.90;99.90
71837;DHT22;59686;51.716;7.016;2023-11-19T06:02:38;10.90;99.90
71837;DHT22;59686;51.716;7.016;2023-11-19T06:05:05;10.90;99.90
71837;DHT22;59686;51.716;7.016;2023-11-19T06:07:34;10.90;99.90
71837;DHT22;59686;51.716;7.016;2023-11-19T06:10:02;10.90;99.90
71837;DHT22;59686;51.716;7.016;2023-11-19T06:12:29;10.90;99.90
71837;DHT22;59686;51.716;7.016;2023-11-19T06:14:55;10.90;99.90
71837;DHT22;59686;51.716;7.016;2023-11-19T06:17:22;10.90;99.90
71837;DHT22;59686;51.716;7.016;2023-11-19T06:19:47;10.90;99.90
71837;DHT22;59686;51.716;7.016;2023-11-19T06:22:13;10.90;99.90
71837;DHT22;59686;51.716;7.016;2023-11-19T06:24:39;11.00;99.90
71837;DHT22;59686;51.716;7.016;2023-11-19T06:27:04;11.00;99.90
71837;DHT22;59686;51.716;7.016;2023-11-19T06:29:30;11.00;99.90
71837;DHT22;59686;51.716;7.016;2023-11-19T06:31:55;11.00;99.90
71837;DHT22;59686;51.716;7.016;2023-11-19T06:34:21;11.00;99.90
71837;DHT22;59686;51.716;7.016;2023-11-19T06:36:47;11.00;99.80
71837;DHT22;59686;51.716;7.016;2023-11-19T06:39:13;11.10;99.90
71837;DHT22;59686;51.716;7.016;2023-11-19T06:41:44;11.00;99.90
71837;DHT22;59686;51.716;7.016;2023-11-19T06:44:10;11.00;99.90
71837;DHT22;59686;51.716;7.016;2023-11-19T06:46:36;11.10;99.90
71837;DHT22;59686;51.716;7.016;2023-11-19T06:49:02;11.00;99.90
71837;DHT22;59686;51.716;7.016;2023-11-19T06:51:27;11.00;99.90
71837;DHT22;59686;51.716;7.016;2023-11-19T06:53:53;11.10;99.90
71837;DHT22;59686;51.716;7.016;2023-11-19T06:56:23;11.10;99.80
71837;DHT22;59686;51.716;7.016;2023-11-19T06:58:51;11.10;99.80
71837;DHT22;59686;51.716;7.016;2023-11-19T07:01:18;11.00;99.80
71837;DHT22;59686;51.716;7.016;2023-11-19T07:03:47;11.00;99.90
71837;DHT22;59686;51.716;7.016;2023-11-19T07:06:12;11.00;99.90
71837;DHT22;59686;51.716;7.016;2023-11-19T07:08:40;11.00;99.90
71837;DHT22;59686;51.716;7.016;2023-11-19T07:11:06;11.00;99.90
71837;DHT22;59686;51.716;7.016;2023-11-19T07:13:32;10.90;99.80
71837;DHT22;59686;51.716;7.016;2023-11-19T07:15:57;11.00;99.80
71837;DHT22;59686;51.716;7.016;2023-11-19T07:18:24;11.00;99.80
71837;DHT22;59686;51.716;7.016;2023-11-19T07:20:50;11.00;99.80
71837;DHT22;59686;51.716;7.016;2023-11-19T07:23:24;11.00;99.80
71837;DHT22;59686;51.716;7.016;2023-11-19T07:25:49;11.00;99.70
71837;DHT22;59686;51.716;7.016;2023-11-19T07:28:17;11.00;99.80
71837;DHT22;59686;51.716;7.016;2023-11-19T07:30:43;11.00;99.80
71837;DHT22;59686;51.716;7.016;2023-11-19T07:33:08;11.00;99.80
71837;DHT22;59686;51.716;7.016;2023-11-19T07:35:34;11.00;99.80
71837;DHT22;59686;51.716;7.016;2023-11-19T07:38:00;11.00;99.80
71837;DHT22;59686;51.716;7.016;2023-11-19T07:40:26;11.00;99.80
71837;DHT22;59686;51.716;7.016;2023-11-19T07:42:51;11.00;99.80
71837;DHT22;59686;51.716;7.016;2023-11-19T07:45:17;11.10;99.80
71837;DHT22;59686;51.716;7.016;2023-11-19T07:47:44;11.00;99.70
71837;DHT22;59686;51.716;7.016;2023-11-19T07:50:12;11.10;99.70
71837;DHT22;59686;51.716;7.016;2023-11-19T07:52:44;11.10;99.60
71837;DHT22;59686;51.716;7.016;2023-11-19T07:55:10;11.20;99.60
71837;DHT22;59686;51.716;7.016;2023-11-19T07:57:36;11.10;99.60
71837;DHT22;59686;51.716;7.016;2023-11-19T08:00:02;11.10;99.60
71837;DHT22;59686;51.716;7.016;2023-11-19T08:02:32;11.10;99.60
71837;DHT22;59686;51.716;7.016;2023-11-19T08:04:58;11.10;99.60
71837;DHT22;59686;51.716;7.016;2023-11-19T08:07:24;11.10;99.60
71837;DHT22;59686;51.716;7.016;2023-11-19T08:09:49;11.10;99.60
71837;DHT22;59686;51.716;7.016;2023-11-19T08:12:15;11.00;99.60
71837;DHT22;59686;51.716;7.016;2023-11-19T08:14:41;11.10;99.50
71837;DHT22;59686;51.716;7.016;2023-11-19T08:17:09;11.20;99.50
71837;DHT22;59686;51.716;7.016;2023-11-19T08:19:35;11.20;99.40
71837;DHT22;59686;51.716;7.016;2023-11-19T08:22:00;11.30;99.40
71837;DHT22;59686;51.716;7.016;2023-11-19T08:24:26;11.20;99.40
71837;DHT22;59686;51.716;7.016;2023-11-19T08:26:51;11.20;99.30
71837;DHT22;59686;51.716;7.016;2023-11-19T08:29:17;11.20;99.30
71837;DHT22;59686;51.716;7.016;2023-11-19T08:31:43;11.20;99.30
71837;DHT22;59686;51.716;7.016;2023-11-19T08:34:08;11.30;99.30
71837;DHT22;59686;51.716;7.016;2023-11-19T08:36:34;11.20;99.30
71837;DHT22;59686;51.716;7.016;2023-11-19T08:39:00;11.20;99.30
71837;DHT22;59686;51.716;7.016;2023-11-19T08:41:27;11.20;99.30
71837;DHT22;59686;51.716;7.016;2023-11-19T08:43:52;11.20;99.30
71837;DHT22;59686;51.716;7.016;2023-11-19T08:46:18;11.20;99.30
71837;DHT22;59686;51.716;7.016;2023-11-19T08:48:44;11.20;99.30
71837;DHT22;59686;51.716;7.016;2023-11-19T08:51:12;11.20;99.30
71837;DHT22;59686;51.716;7.016;2023-11-19T08:53:38;11.30;99.30
71837;DHT22;59686;51.716;7.016;2023-11-19T08:56:04;11.20;99.30
71837;DHT22;59686;51.716;7.016;2023-11-19T08:58:30;11.20;99.20
71837;DHT22;59686;51.716;7.016;2023-11-19T09:00:57;11.20;99.20
71837;DHT22;59686;51.716;7.016;2023-11-19T09:03:23;11.20;99.10
71837;DHT22;59686;51.716;7.016;2023-11-19T09:05:51;11.30;99.20
71837;DHT22;59686;51.716;7.016;2023-11-19T09:08:18;11.20;99.20
71837;DHT22;59686;51.716;7.016;2023-11-19T09:10:43;11.30;99.10
71837;DHT22;59686;51.716;7.016;2023-11-19T09:13:09;11.30;99.10
71837;DHT22;59686;51.716;7.016;2023-11-19T09:15:34;11.30;99.10
71837;DHT22;59686;51.716;7.016;2023-11-19T09:18:00;11.30;99.10
71837;DHT22;59686;51.716;7.016;2023-11-19T09:20:26;11.30;99.00
71837;DHT22;59686;51.716;7.016;2023-11-19T09:22:51;11.40;98.90
71837;DHT22;59686;51.716;7.016;2023-11-19T09:25:17;11.40;98.90
71837;DHT22;59686;51.716;7.016;2023-11-19T09:27:43;11.40;98.90
71837;DHT22;59686;51.716;7.016;2023-11-19T09:30:09;11.30;98.90
71837;DHT22;59686;51.716;7.016;2023-11-19T09:32:35;11.40;98.90
71837;DHT22;59686;51.716;7.016;2023-11-19T09:35:03;11.40;98.80
71837;DHT22;59686;51.716;7.016;2023-11-19T09:37:29;11.40;98.80
71837;DHT22;59686;51.716;7.016;2023-11-19T09:39:54;11.40;98.70
71837;DHT22;59686;51.716;7.016;2023-11-19T09:42:20;11.50;98.80
71837;DHT22;59686;51.716;7.016;2023-11-19T09:44:47;11.50;99.10
71837;DHT22;59686;51.716;7.016;2023-11-19T09:47:14;11.50;98.70
71837;DHT22;59686;51.716;7.016;2023-11-19T09:49:42;11.40;99.00
71837;DHT22;59686;51.716;7.016;2023-11-19T09:52:07;11.50;98.70
71837;DHT22;59686;51.716;7.016;2023-11-19T09:54:33;11.40;98.60
71837;DHT22;59686;51.716;7.016;2023-11-19T09:56:59;11.60;98.80
71837;DHT22;59686;51.716;7.016;2023-11-19T09:59:30;11.40;98.80
71837;DHT22;59686;51.716;7.016;2023-11-19T10:01:56;11.40;98.80
71837;DHT22;59686;51.716;7.016;2023-11-19T10:04:22;11.40;98.80
71837;DHT22;59686;51.716;7.016;2023-11-19T10:06:50;11.40;98.70
71837;DHT22;59686;51.716;7.016;2023-11-19T10:09:16;11.50;98.70
71837;DHT22;59686;51.716;7.016;2023-11-19T10:11:42;11.50;98.60
71837;DHT22;59686;51.716;7.016;2023-11-19T10:14:09;11.50;98.70
71837;DHT22;59686;51.716;7.016;2023-11-19T10:16:35;11.50;98.60
71837;DHT22;59686;51.716;7.016;2023-11-19T10:19:00;11.50;98.60
71837;DHT22;59686;51.716;7.016;2023-11-19T10:21:27;11.50;98.50
71837;DHT22;59686;51.716;7.016;2023-11-19T10:23:55;11.60;98.50
71837;DHT22;59686;51.716;7.016;2023-11-19T10:26:26;11.60;98.60
71837;DHT22;59686;51.716;7.016;2023-11-19T10:28:52;11.50;98.50
71837;DHT22;59686;51.716;7.016;2023-11-19T10:31:18;11.50;98.60
71837;DHT22;59686;51.716;7.016;2023-11-19T10:33:45;11.50;98.60
71837;DHT22;59686;51.716;7.016;2023-11-19T10:36:12;11.60;98.70
71837;DHT22;59686;51.716;7.016;2023-11-19T10:38:38;11.60;98.70
71837;DHT22;59686;51.716;7.016;2023-11-19T10:41:04;11.50;98.70
71837;DHT22;59686;51.716;7.016;2023-11-19T10:43:31;11.50;98.70
71837;DHT22;59686;51.716;7.016;2023-11-19T10:46:12;11.50;98.70
71837;DHT22;59686;51.716;7.016;2023-11-19T10:48:39;11.50;98.70
71837;DHT22;59686;51.716;7.016;2023-11-19T10:51:06;11.50;98.70
71837;DHT22;59686;51.716;7.016;2023-11-19T10:53:38;11.60;98.80
71837;DHT22;59686;51.716;7.016;2023-11-19T10:56:09;11.50;98.80
71837;DHT22;59686;51.716;7.016;2023-11-19T10:58:44;11.60;98.80
71837;DHT22;59686;51.716;7.016;2023-11-19T11:01:18;11.70;98.80
71837;DHT22;59686;51.716;7.016;2023-11-19T11:03:45;11.70;98.80
71837;DHT22;59686;51.716;7.016;2023-11-19T11:06:12;11.60;98.60
71837;DHT22;59686;51.716;7.016;2023-11-19T11:08:39;11.80;98.70
71837;DHT22;59686;51.716;7.016;2023-11-19T11:11:05;11.80;98.60
71837;DHT22;59686;51.716;7.016;2023-11-19T11:13:34;11.80;98.60
71837;DHT22;59686;51.716;7.016;2023-11-19T11:16:01;11.80;98.50
71837;DHT22;59686;51.716;7.016;2023-11-19T11:18:29;11.90;98.40
71837;DHT22;59686;51.716;7.016;2023-11-19T11:21:17;11.90;98.40
71837;DHT22;59686;51.716;7.016;2023-11-19T11:34:58;11.80;98.50
71837;DHT22;59686;51.716;7.016;2023-11-19T11:37:34;11.90;98.50
71837;DHT22;59686;51.716;7.016;2023-11-19T11:40:02;11.90;98.40
71837;DHT22;59686;51.716;7.016;2023-11-19T11:42:38;11.90;98.40
71837;DHT22;59686;51.716;7.016;2023-11-19T11:45:06;11.90;98.50
71837;DHT22;59686;51.716;7.016;2023-11-19T11:50:14;11.90;98.30
71837;DHT22;59686;51.716;7.016;2023-11-19T11:55:36;11.90;98.30
71837;DHT22;59686;51.716;7.016;2023-11-19T11:58:03;11.90;98.30
71837;DHT22;59686;51.716;7.016;2023-11-19T12:00:30;12.00;98.30
71837;DHT22;59686;51.716;7.016;2023-11-19T12:03:00;11.90;98.20
71837;DHT22;59686;51.716;7.016;2023-11-19T12:05:26;12.00;98.10
71837;DHT22;59686;51.716;7.016;2023-11-19T12:08:14;12.00;98.00
71837;DHT22;59686;51.716;7.016;2023-11-19T12:10:49;12.10;97.90
71837;DHT22;59686;51.716;7.016;2023-11-19T12:13:20;12.10;97.90
71837;DHT22;59686;51.716;7.016;2023-11-19T12:18:32;12.10;97.70
71837;DHT22;59686;51.716;7.016;2023-11-19T12:21:02;12.10;97.70
71837;DHT22;59686;51.716;7.016;2023-11-19T12:23:31;12.00;97.70
71837;DHT22;59686;51.716;7.016;2023-11-19T12:26:02;12.00;97.80
71837;DHT22;59686;51.716;7.016;2023-11-19T12:28:29;12.00;97.80
71837;DHT22;59686;51.716;7.016;2023-11-19T12:31:07;11.90;97.90
71837;DHT22;59686;51.716;7.016;2023-11-19T12:33:35;12.00;98.00
71837;DHT22;59686;51.716;7.016;2023-11-19T12:36:01;11.90;97.90
71837;DHT22;59686;51.716;7.016;2023-11-19T12:38:30;11.90;97.90
71837;DHT22;59686;51.716;7.016;2023-11-19T12:41:07;12.00;97.80
71837;DHT22;59686;51.716;7.016;2023-11-19T12:43:34;12.00;97.90
71837;DHT22;59686;51.716;7.016;2023-11-19T12:46:00;12.10;97.90
71837;DHT22;59686;51.716;7.016;2023-11-19T12:48:26;11.90;97.90
71837;DHT22;59686;51.716;7.016;2023-11-19T12:50:59;11.90;97.90
71837;DHT22;59686;51.716;7.016;2023-11-19T12:53:27;11.90;97.90
71837;DHT22;59686;51.716;7.016;2023-11-19T12:55:54;11.90;97.90
71837;DHT22;59686;51.716;7.016;2023-11-19T12:58:34;11.90;97.90
71837;DHT22;59686;51.716;7.016;2023-11-19T13:01:02;11.90;97.90
71837;DHT22;59686;51.716;7.016;2023-11-19T13:03:38;12.00;98.00
71837;DHT22;59686;51.716;7.016;2023-11-19T13:06:08;11.90;98.00
71837;DHT22;59686;51.716;7.016;2023-11-19T13:08:44;11.90;98.00
71837;DHT22;59686;51.716;7.016;2023-11-19T13:11:11;11.90;98.00
71837;DHT22;59686;51.716;7.016;2023-11-19T13:13:59;11.90;97.90
71837;DHT22;59686;51.716;7.016;2023-11-19T13:16:26;12.00;98.00
71837;DHT22;59686;51.716;7.016;2023-11-19T13:19:01;12.00;98.00
71837;DHT22;59686;51.716;7.016;2023-11-19T13:21:28;11.90;98.00
71837;DHT22;59686;51.716;7.016;2023-11-19T13:23:55;12.00;98.00
71837;DHT22;59686;51.716;7.016;2023-11-19T13:26:22;11.90;98.10
71837;DHT22;59686;51.716;7.016;2023-11-19T13:28:48;11.90;98.20
71837;DHT22;59686;51.716;7.016;2023-11-19T13:31:14;11.90;98.20
71837;DHT22;59686;51.716;7.016;2023-11-19T13:33:40;11.90;98.10
71837;DHT22;59686;51.716;7.016;2023-11-19T13:36:06;11.90;98.20
71837;DHT22;59686;51.716;7.016;2023-11-19T13:38:36;11.90;98.10
71837;DHT22;59686;51.716;7.016;2023-11-19T13:41:03;12.00;98.20
71837;DHT22;59686;51.716;7.016;2023-11-19T13:43:29;11.90;98.20
71837;DHT22;59686;51.716;7.016;2023-11-19T13:45:56;11.90;98.20
71837;DHT22;59686;51.716;7.016;2023-11-19T13:48:22;11.90;98.20
71837;DHT22;59686;51.716;7.016;2023-11-19T13:50:47;11.90;98.20
71837;DHT22;59686;51.716;7.016;2023-11-19T13:53:13;12.00;98.10
71837;DHT22;59686;51.716;7.016;2023-11-19T13:55:43;11.90;98.10
71837;DHT22;59686;51.716;7.016;2023-11-19T13:58:09;11.90;98.10
71837;DHT22;59686;51.716;7.016;2023-11-19T14:00:35;12.00;98.10
71837;DHT22;59686;51.716;7.016;2023-11-19T14:03:01;11.90;98.10
71837;DHT22;59686;51.716;7.016;2023-11-19T14:05:30;11.90;98.10
71837;DHT22;59686;51.716;7.016;2023-11-19T14:07:56;12.00;98.10
71837;DHT22;59686;51.716;7.016;2023-11-19T14:10:23;11.90;98.10
71837;DHT22;59686;51.716;7.016;2023-11-19T14:12:49;11.90;98.00
71837;DHT22;59686;51.716;7.016;2023-11-19T14:15:15;11.80;98.00
71837;DHT22;59686;51.716;7.016;2023-11-19T14:17:45;12.00;98.10
71837;DHT22;59686;51.716;7.016;2023-11-19T14:20:10;11.90;98.00
71837;DHT22;59686;51.716;7.016;2023-11-19T14:22:41;11.90;98.10
71837;DHT22;59686;51.716;7.016;2023-11-19T14:25:09;12.00;98.10
71837;DHT22;59686;51.716;7.016;2023-11-19T14:27:38;11.90;98.10
71837;DHT22;59686;51.716;7.016;2023-11-19T14:30:06;11.90;98.20
71837;DHT22;59686;51.716;7.016;2023-11-19T14:32:33;11.90;98.10
71837;DHT22;59686;51.716;7.016;2023-11-19T14:34:59;11.90;98.20
71837;DHT22;59686;51.716;7.016;2023-11-19T14:37:24;11.90;98.30
71837;DHT22;59686;51.716;7.016;2023-11-19T14:39:50;11.90;98.30
71837;DHT22;59686;51.716;7.016;2023-11-19T14:42:18;11.90;98.40
71837;DHT22;59686;51.716;7.016;2023-11-19T14:44:44;11.90;98.40
71837;DHT22;59686;51.716;7.016;2023-11-19T14:47:10;11.90;98.40
71837;DHT22;59686;51.716;7.016;2023-11-19T14:49:35;11.80;98.40
71837;DHT22;59686;51.716;7.016;2023-11-19T14:52:03;12.00;98.50
71837;DHT22;59686;51.716;7.016;2023-11-19T14:54:29;11.90;98.50
71837;DHT22;59686;51.716;7.016;2023-11-19T14:56:54;11.90;98.70
71837;DHT22;59686;51.716;7.016;2023-11-19T14:59:25;11.90;98.70
71837;DHT22;59686;51.716;7.016;2023-11-19T15:01:51;11.90;98.70
71837;DHT22;59686;51.716;7.016;2023-11-19T15:04:16;11.90;98.70
71837;DHT22;59686;51.716;7.016;2023-11-19T15:06:43;11.90;98.80
71837;DHT22;59686;51.716;7.016;2023-11-19T15:09:08;11.80;98.80
71837;DHT22;59686;51.716;7.016;2023-11-19T15:11:35;11.80;98.80
71837;DHT22;59686;51.716;7.016;2023-11-19T15:14:01;11.80;98.80
71837;DHT22;59686;51.716;7.016;2023-11-19T15:16:26;11.80;98.80
71837;DHT22;59686;51.716;7.016;2023-11-19T15:18:58;11.80;98.80
71837;DHT22;59686;51.716;7.016;2023-11-19T15:21:26;11.90;98.80
71837;DHT22;59686;51.716;7.016;2023-11-19T15:23:52;11.90;98.90
71837;DHT22;59686;51.716;7.016;2023-11-19T15:26:18;11.80;98.80
71837;DHT22;59686;51.716;7.016;2023-11-19T15:28:44;11.80;98.80
71837;DHT22;59686;51.716;7.016;2023-11-19T15:31:10;11.90;98.90
71837;DHT22;59686;51.716;7.016;2023-11-19T15:33:36;11.80;98.90
71837;DHT22;59686;51.716;7.016;2023-11-19T15:36:01;11.80;98.90
71837;DHT22;59686;51.716;7.016;2023-11-19T15:38:35;11.90;98.80
71837;DHT22;59686;51.716;7.016;2023-11-19T15:41:01;11.80;98.90
71837;DHT22;59686;51.716;7.016;2023-11-19T15:43:30;11.80;98.90
71837;DHT22;59686;51.716;7.016;2023-11-19T15:45:56;11.80;98.80
71837;DHT22;59686;51.716;7.016;2023-11-19T15:48:22;11.80;98.80
71837;DHT22;59686;51.716;7.016;2023-11-19T15:50:48;11.80;98.80